Selfridge Angb Airport
KMTC : now visible

Airfield :











YOU CAN JOIN US ON...

 
LOGIN :

Register | Disclaimer

   EN    FR    IT 

 









Legend :    VFR   Marginal VFR   IFR   Intensive IFR   Very Intensive IFR
Visi :
Ceiling :
>= 8 km
>= 3000ft
5 to 8 km
1000 to 3000 ft
1500m to 5 km
500 to 1000 ft
800 to 1500m
200 to 500 ft
< 800m
< 200 ft
Symbols :   Thunderstorms  Fog  Heavy snow  Heavy precipitations  Wind > 20 kt






- Airport Elevation : 580 ft


KMTC - Selfridge Angb

CURRENT METAR :
  • 281855Z 23008KT 10SM FEW220 08/M04 A3007 RMK AO2A SLP192 T00801041 $

EXPIRED METARs :
  • 281755Z 22008KT 10SM SCT220 07/M04 A3009 RMK AO2A SLP199 T00741038 10074 21013 58007 $
  • 281655Z 25009KT 10SM FEW220 06/M04 A3010 RMK AO2A SLP202 T00631036 $

TAF TAF KMTC
Valid from the 28 at 17:00 until the 29 at 23:00 UTC


281700Z 2817/2923 23010G15KT 9999 FEW250 QNH3005INS
BECMG 2820/2821 22009KT 9999 FEW250 QNH2998INS
BECMG 2914/2915 24010G15KT 9999 FEW025 FEW250 QNH2994INS TX07/2820Z TN00/2913Z
KZOB FIR / North America



MET'MAP, your aeronautical weather chart ! - Copyright ORBIFLY December 2007 - Disclaimer

ORBIFLY MET'MAP TEAM :

Programming & Development : Alexandra Zaïnal
Concept & original design : Baudouin d'Aumeries
Assistance for programming : Marc-Olivier Méhu
Technical & hardware support : Manuel Goepfert

Contact : metmap@orbifly.com




SOURCES & CREDITS :

   NOAA       Earth
Advisory